sensor_id;sensor_type;location;lat;lon;timestamp;temperature;humidity
68276;DHT22;55106;51.438;-0.098;2022-12-20T00:01:13;12.34;99.99
68276;DHT22;55106;51.438;-0.098;2022-12-20T00:03:40;12.30;99.99
68276;DHT22;55106;51.438;-0.098;2022-12-20T00:06:05;12.29;99.99
68276;DHT22;55106;51.438;-0.098;2022-12-20T00:08:31;12.27;99.99
68276;DHT22;55106;51.438;-0.098;2022-12-20T00:10:59;12.30;99.99
68276;DHT22;55106;51.438;-0.098;2022-12-20T00:13:26;12.32;99.99
68276;DHT22;55106;51.438;-0.098;2022-12-20T00:16:06;12.30;99.99
68276;DHT22;55106;51.438;-0.098;2022-12-20T00:18:32;12.25;99.99
68276;DHT22;55106;51.438;-0.098;2022-12-20T00:20:58;12.20;99.99
68276;DHT22;55106;51.438;-0.098;2022-12-20T00:23:24;12.15;99.99
68276;DHT22;55106;51.438;-0.098;2022-12-20T00:25:49;12.13;99.99
68276;DHT22;55106;51.438;-0.098;2022-12-20T00:28:15;12.12;99.99
68276;DHT22;55106;51.438;-0.098;2022-12-20T00:30:40;12.13;99.99
68276;DHT22;55106;51.438;-0.098;2022-12-20T00:33:05;12.19;99.99
68276;DHT22;55106;51.438;-0.098;2022-12-20T00:35:30;12.25;99.99
68276;DHT22;55106;51.438;-0.098;2022-12-20T00:37:56;12.22;99.99
68276;DHT22;55106;51.438;-0.098;2022-12-20T00:40:21;12.25;99.99
68276;DHT22;55106;51.438;-0.098;2022-12-20T00:42:47;12.26;99.99
68276;DHT22;55106;51.438;-0.098;2022-12-20T00:45:12;12.27;99.99
68276;DHT22;55106;51.438;-0.098;2022-12-20T00:47:38;12.25;99.99
68276;DHT22;55106;51.438;-0.098;2022-12-20T00:50:04;12.26;99.99
68276;DHT22;55106;51.438;-0.098;2022-12-20T00:52:29;12.27;99.99
68276;DHT22;55106;51.438;-0.098;2022-12-20T00:54:54;12.25;99.99
68276;DHT22;55106;51.438;-0.098;2022-12-20T00:57:20;12.30;99.99
68276;DHT22;55106;51.438;-0.098;2022-12-20T00:59:45;12.32;99.99
68276;DHT22;55106;51.438;-0.098;2022-12-20T01:02:10;12.29;99.99
68276;DHT22;55106;51.438;-0.098;2022-12-20T01:04:36;12.33;99.99
68276;DHT22;55106;51.438;-0.098;2022-12-20T01:07:01;12.34;99.99
68276;DHT22;55106;51.438;-0.098;2022-12-20T01:09:27;12.30;99.99
68276;DHT22;55106;51.438;-0.098;2022-12-20T01:11:52;12.33;99.99
68276;DHT22;55106;51.438;-0.098;2022-12-20T01:14:17;12.33;99.99
68276;DHT22;55106;51.438;-0.098;2022-12-20T01:16:45;12.36;99.99
68276;DHT22;55106;51.438;-0.098;2022-12-20T01:19:12;12.36;99.99
68276;DHT22;55106;51.438;-0.098;2022-12-20T01:21:38;12.34;99.99
68276;DHT22;55106;51.438;-0.098;2022-12-20T01:24:12;12.39;99.99
68276;DHT22;55106;51.438;-0.098;2022-12-20T01:26:38;12.37;99.99
68276;DHT22;55106;51.438;-0.098;2022-12-20T01:29:04;12.39;99.99
68276;DHT22;55106;51.438;-0.098;2022-12-20T01:31:29;12.34;99.99
68276;DHT22;55106;51.438;-0.098;2022-12-20T01:33:55;12.33;99.99
68276;DHT22;55106;51.438;-0.098;2022-12-20T01:36:23;12.34;99.99
68276;DHT22;55106;51.438;-0.098;2022-12-20T01:38:49;12.34;99.99
68276;DHT22;55106;51.438;-0.098;2022-12-20T01:41:19;12.36;99.99
68276;DHT22;55106;51.438;-0.098;2022-12-20T01:46:21;12.39;99.99
68276;DHT22;55106;51.438;-0.098;2022-12-20T01:48:52;12.39;99.99
68276;DHT22;55106;51.438;-0.098;2022-12-20T01:51:18;12.37;99.99
68276;DHT22;55106;51.438;-0.098;2022-12-20T01:53:44;12.36;99.99
68276;DHT22;55106;51.438;-0.098;2022-12-20T01:56:10;12.36;99.99
68276;DHT22;55106;51.438;-0.098;2022-12-20T01:58:37;12.40;99.99
68276;DHT22;55106;51.438;-0.098;2022-12-20T02:01:03;12.40;99.99
68276;DHT22;55106;51.438;-0.098;2022-12-20T02:03:29;12.41;99.99
68276;DHT22;55106;51.438;-0.098;2022-12-20T02:05:55;12.43;99.99
68276;DHT22;55106;51.438;-0.098;2022-12-20T02:08:20;12.40;99.99
68276;DHT22;55106;51.438;-0.098;2022-12-20T02:10:59;12.37;99.99
68276;DHT22;55106;51.438;-0.098;2022-12-20T02:16:28;12.44;99.99
68276;DHT22;55106;51.438;-0.098;2022-12-20T02:19:20;12.37;99.99
68276;DHT22;55106;51.438;-0.098;2022-12-20T02:22:17;12.43;99.99
68276;DHT22;55106;51.438;-0.098;2022-12-20T02:25:08;12.39;99.99
68276;DHT22;55106;51.438;-0.098;2022-12-20T02:27:50;12.41;99.99
68276;DHT22;55106;51.438;-0.098;2022-12-20T02:30:20;12.44;99.99
68276;DHT22;55106;51.438;-0.098;2022-12-20T02:32:51;12.46;99.99
68276;DHT22;55106;51.438;-0.098;2022-12-20T02:35:22;12.56;99.99
68276;DHT22;55106;51.438;-0.098;2022-12-20T02:37:55;12.56;99.99
68276;DHT22;55106;51.438;-0.098;2022-12-20T02:40:25;12.48;99.99
68276;DHT22;55106;51.438;-0.098;2022-12-20T02:42:55;12.53;99.99
68276;DHT22;55106;51.438;-0.098;2022-12-20T02:45:25;12.53;99.99
68276;DHT22;55106;51.438;-0.098;2022-12-20T02:47:59;12.53;99.99
68276;DHT22;55106;51.438;-0.098;2022-12-20T02:50:36;12.54;99.99
68276;DHT22;55106;51.438;-0.098;2022-12-20T02:53:04;12.56;99.99
68276;DHT22;55106;51.438;-0.098;2022-12-20T02:55:59;12.56;99.99
68276;DHT22;55106;51.438;-0.098;2022-12-20T03:01:26;12.53;99.99
68276;DHT22;55106;51.438;-0.098;2022-12-20T03:03:53;12.56;99.99
68276;DHT22;55106;51.438;-0.098;2022-12-20T03:06:20;12.57;99.99
68276;DHT22;55106;51.438;-0.098;2022-12-20T03:08:45;12.53;99.99
68276;DHT22;55106;51.438;-0.098;2022-12-20T03:11:11;12.53;99.99
68276;DHT22;55106;51.438;-0.098;2022-12-20T03:13:38;12.54;99.99
68276;DHT22;55106;51.438;-0.098;2022-12-20T03:16:03;12.56;99.99
68276;DHT22;55106;51.438;-0.098;2022-12-20T03:18:29;12.56;99.99
68276;DHT22;55106;51.438;-0.098;2022-12-20T03:20:54;12.51;99.99
68276;DHT22;55106;51.438;-0.098;2022-12-20T03:23:19;12.43;99.99
68276;DHT22;55106;51.438;-0.098;2022-12-20T03:25:46;12.40;99.99
68276;DHT22;55106;51.438;-0.098;2022-12-20T03:28:11;12.30;99.99
68276;DHT22;55106;51.438;-0.098;2022-12-20T03:30:37;12.23;99.99
68276;DHT22;55106;51.438;-0.098;2022-12-20T03:33:02;12.20;99.99
68276;DHT22;55106;51.438;-0.098;2022-12-20T03:35:28;12.20;99.99
68276;DHT22;55106;51.438;-0.098;2022-12-20T03:37:54;12.18;99.99
68276;DHT22;55106;51.438;-0.098;2022-12-20T03:40:20;12.18;99.99
68276;DHT22;55106;51.438;-0.098;2022-12-20T03:42:46;12.16;99.99
68276;DHT22;55106;51.438;-0.098;2022-12-20T03:45:11;12.19;99.99
68276;DHT22;55106;51.438;-0.098;2022-12-20T03:47:37;12.19;99.99
68276;DHT22;55106;51.438;-0.098;2022-12-20T03:50:03;12.19;99.99
68276;DHT22;55106;51.438;-0.098;2022-12-20T03:52:29;12.18;99.99
68276;DHT22;55106;51.438;-0.098;2022-12-20T03:54:54;12.19;99.99
68276;DHT22;55106;51.438;-0.098;2022-12-20T03:57:19;12.22;99.99
68276;DHT22;55106;51.438;-0.098;2022-12-20T03:59:45;12.19;99.99
68276;DHT22;55106;51.438;-0.098;2022-12-20T04:02:10;12.18;99.99
68276;DHT22;55106;51.438;-0.098;2022-12-20T04:04:36;12.19;99.99
68276;DHT22;55106;51.438;-0.098;2022-12-20T04:07:01;12.20;99.99
68276;DHT22;55106;51.438;-0.098;2022-12-20T04:09:26;12.20;99.99
68276;DHT22;55106;51.438;-0.098;2022-12-20T04:11:52;12.20;99.99
68276;DHT22;55106;51.438;-0.098;2022-12-20T04:14:17;12.19;99.99
68276;DHT22;55106;51.438;-0.098;2022-12-20T04:16:42;12.19;99.99
68276;DHT22;55106;51.438;-0.098;2022-12-20T04:19:08;12.12;99.99
68276;DHT22;55106;51.438;-0.098;2022-12-20T04:21:34;12.10;99.99
68276;DHT22;55106;51.438;-0.098;2022-12-20T04:24:01;12.06;99.99
68276;DHT22;55106;51.438;-0.098;2022-12-20T04:26:28;12.06;99.99
68276;DHT22;55106;51.438;-0.098;2022-12-20T04:28:53;11.99;99.99
68276;DHT22;55106;51.438;-0.098;2022-12-20T04:31:19;12.06;99.99
68276;DHT22;55106;51.438;-0.098;2022-12-20T04:33:45;12.06;99.99
68276;DHT22;55106;51.438;-0.098;2022-12-20T04:36:11;12.00;99.99
68276;DHT22;55106;51.438;-0.098;2022-12-20T04:38:37;12.02;99.99
68276;DHT22;55106;51.438;-0.098;2022-12-20T04:41:02;12.02;99.99
68276;DHT22;55106;51.438;-0.098;2022-12-20T04:43:28;11.98;99.99
68276;DHT22;55106;51.438;-0.098;2022-12-20T04:45:54;12.03;99.99
68276;DHT22;55106;51.438;-0.098;2022-12-20T04:48:24;12.09;99.99
68276;DHT22;55106;51.438;-0.098;2022-12-20T04:50:54;12.02;99.99
68276;DHT22;55106;51.438;-0.098;2022-12-20T04:53:21;12.02;99.99
68276;DHT22;55106;51.438;-0.098;2022-12-20T04:56:06;12.00;99.99
68276;DHT22;55106;51.438;-0.098;2022-12-20T04:58:32;11.98;99.99
68276;DHT22;55106;51.438;-0.098;2022-12-20T05:00:58;11.99;99.99
68276;DHT22;55106;51.438;-0.098;2022-12-20T05:03:24;12.00;99.99
68276;DHT22;55106;51.438;-0.098;2022-12-20T05:05:50;12.03;99.99
68276;DHT22;55106;51.438;-0.098;2022-12-20T05:08:16;12.02;99.99
68276;DHT22;55106;51.438;-0.098;2022-12-20T05:10:41;12.09;99.99
68276;DHT22;55106;51.438;-0.098;2022-12-20T05:13:07;12.09;99.99
68276;DHT22;55106;51.438;-0.098;2022-12-20T05:15:32;12.08;99.99
68276;DHT22;55106;51.438;-0.098;2022-12-20T05:17:58;12.03;99.99
68276;DHT22;55106;51.438;-0.098;2022-12-20T05:20:31;12.09;99.99
68276;DHT22;55106;51.438;-0.098;2022-12-20T05:22:57;12.10;99.99
68276;DHT22;55106;51.438;-0.098;2022-12-20T05:25:46;12.08;99.99
68276;DHT22;55106;51.438;-0.098;2022-12-20T05:28:31;12.09;99.99
68276;DHT22;55106;51.438;-0.098;2022-12-20T05:30:56;12.06;99.99
68276;DHT22;55106;51.438;-0.098;2022-12-20T05:33:22;12.02;99.99
68276;DHT22;55106;51.438;-0.098;2022-12-20T05:35:47;12.03;99.99
68276;DHT22;55106;51.438;-0.098;2022-12-20T05:38:12;12.08;99.99
68276;DHT22;55106;51.438;-0.098;2022-12-20T05:40:39;12.13;99.99
68276;DHT22;55106;51.438;-0.098;2022-12-20T05:43:04;12.08;99.99
68276;DHT22;55106;51.438;-0.098;2022-12-20T05:45:31;12.12;99.99
68276;DHT22;55106;51.438;-0.098;2022-12-20T05:47:56;12.10;99.99
68276;DHT22;55106;51.438;-0.098;2022-12-20T05:50:22;12.10;99.99
68276;DHT22;55106;51.438;-0.098;2022-12-20T05:52:47;12.18;99.99
68276;DHT22;55106;51.438;-0.098;2022-12-20T05:55:13;12.20;99.99
68276;DHT22;55106;51.438;-0.098;2022-12-20T05:57:38;12.12;99.99
68276;DHT22;55106;51.438;-0.098;2022-12-20T06:00:05;12.18;99.99
68276;DHT22;55106;51.438;-0.098;2022-12-20T06:02:30;12.20;99.99
68276;DHT22;55106;51.438;-0.098;2022-12-20T06:04:56;12.23;99.99
68276;DHT22;55106;51.438;-0.098;2022-12-20T06:07:23;12.25;99.99
68276;DHT22;55106;51.438;-0.098;2022-12-20T06:09:49;12.22;99.99
68276;DHT22;55106;51.438;-0.098;2022-12-20T06:12:14;12.22;99.99
68276;DHT22;55106;51.438;-0.098;2022-12-20T06:14:39;12.19;99.99
68276;DHT22;55106;51.438;-0.098;2022-12-20T06:17:05;12.19;99.99
68276;DHT22;55106;51.438;-0.098;2022-12-20T06:19:30;12.22;99.99
68276;DHT22;55106;51.438;-0.098;2022-12-20T06:21:55;12.18;99.99
68276;DHT22;55106;51.438;-0.098;2022-12-20T06:24:21;12.19;99.99
68276;DHT22;55106;51.438;-0.098;2022-12-20T06:26:50;12.16;99.99
68276;DHT22;55106;51.438;-0.098;2022-12-20T06:29:15;12.20;99.99
68276;DHT22;55106;51.438;-0.098;2022-12-20T06:31:42;12.16;99.99
68276;DHT22;55106;51.438;-0.098;2022-12-20T06:34:08;12.13;99.99
68276;DHT22;55106;51.438;-0.098;2022-12-20T06:36:33;12.12;99.99
68276;DHT22;55106;51.438;-0.098;2022-12-20T06:38:58;12.09;99.99
68276;DHT22;55106;51.438;-0.098;2022-12-20T06:41:24;12.05;99.99
68276;DHT22;55106;51.438;-0.098;2022-12-20T06:43:49;12.03;99.99
68276;DHT22;55106;51.438;-0.098;2022-12-20T06:46:15;12.00;99.99
68276;DHT22;55106;51.438;-0.098;2022-12-20T06:48:40;12.03;99.99
68276;DHT22;55106;51.438;-0.098;2022-12-20T06:51:06;12.02;99.99
68276;DHT22;55106;51.438;-0.098;2022-12-20T06:53:31;12.02;99.99
68276;DHT22;55106;51.438;-0.098;2022-12-20T06:55:56;11.98;99.99
68276;DHT22;55106;51.438;-0.098;2022-12-20T06:58:22;11.89;99.99
68276;DHT22;55106;51.438;-0.098;2022-12-20T07:00:47;11.75;99.99
68276;DHT22;55106;51.438;-0.098;2022-12-20T07:03:13;11.58;99.99
68276;DHT22;55106;51.438;-0.098;2022-12-20T07:05:39;11.44;99.99
68276;DHT22;55106;51.438;-0.098;2022-12-20T07:08:05;11.30;99.99
68276;DHT22;55106;51.438;-0.098;2022-12-20T07:10:32;11.28;99.99
68276;DHT22;55106;51.438;-0.098;2022-12-20T07:12:58;11.22;99.99
68276;DHT22;55106;51.438;-0.098;2022-12-20T07:15:23;11.14;99.99
68276;DHT22;55106;51.438;-0.098;2022-12-20T07:17:48;11.09;99.99
68276;DHT22;55106;51.438;-0.098;2022-12-20T07:20:14;11.06;99.99
68276;DHT22;55106;51.438;-0.098;2022-12-20T07:22:41;11.02;99.99
68276;DHT22;55106;51.438;-0.098;2022-12-20T07:25:06;10.97;99.99
68276;DHT22;55106;51.438;-0.098;2022-12-20T07:27:32;10.95;99.99
68276;DHT22;55106;51.438;-0.098;2022-12-20T07:29:57;10.91;99.99
68276;DHT22;55106;51.438;-0.098;2022-12-20T07:32:22;10.83;99.99
68276;DHT22;55106;51.438;-0.098;2022-12-20T07:34:48;10.76;99.99
68276;DHT22;55106;51.438;-0.098;2022-12-20T07:37:13;10.72;99.99
68276;DHT22;55106;51.438;-0.098;2022-12-20T07:39:38;10.68;99.99
68276;DHT22;55106;51.438;-0.098;2022-12-20T07:42:06;10.65;99.99
68276;DHT22;55106;51.438;-0.098;2022-12-20T07:44:31;10.59;99.99
68276;DHT22;55106;51.438;-0.098;2022-12-20T07:46:57;10.49;99.99
68276;DHT22;55106;51.438;-0.098;2022-12-20T07:49:22;10.42;99.99
68276;DHT22;55106;51.438;-0.098;2022-12-20T07:51:50;10.35;99.99
68276;DHT22;55106;51.438;-0.098;2022-12-20T07:54:22;10.25;99.99
68276;DHT22;55106;51.438;-0.098;2022-12-20T07:56:52;10.11;99.99
68276;DHT22;55106;51.438;-0.098;2022-12-20T07:59:22;9.93;99.99
68276;DHT22;55106;51.438;-0.098;2022-12-20T08:01:48;9.79;99.99
68276;DHT22;55106;51.438;-0.098;2022-12-20T08:04:17;9.65;99.99
68276;DHT22;55106;51.438;-0.098;2022-12-20T08:06:43;9.49;99.99
68276;DHT22;55106;51.438;-0.098;2022-12-20T08:09:10;9.42;99.99
68276;DHT22;55106;51.438;-0.098;2022-12-20T08:11:39;9.38;99.99
68276;DHT22;55106;51.438;-0.098;2022-12-20T08:14:06;9.39;99.99
68276;DHT22;55106;51.438;-0.098;2022-12-20T08:16:33;9.35;99.99
68276;DHT22;55106;51.438;-0.098;2022-12-20T08:18:58;9.32;99.99
68276;DHT22;55106;51.438;-0.098;2022-12-20T08:21:23;9.32;99.99
68276;DHT22;55106;51.438;-0.098;2022-12-20T08:23:49;9.21;99.99
68276;DHT22;55106;51.438;-0.098;2022-12-20T08:26:14;9.27;99.99
68276;DHT22;55106;51.438;-0.098;2022-12-20T08:28:39;9.24;99.99
68276;DHT22;55106;51.438;-0.098;2022-12-20T08:31:07;9.30;99.99
68276;DHT22;55106;51.438;-0.098;2022-12-20T08:33:34;9.31;99.99
68276;DHT22;55106;51.438;-0.098;2022-12-20T08:36:01;9.41;99.99
68276;DHT22;55106;51.438;-0.098;2022-12-20T08:38:28;9.43;99.99
68276;DHT22;55106;51.438;-0.098;2022-12-20T08:40:55;9.35;99.99
68276;DHT22;55106;51.438;-0.098;2022-12-20T08:43:25;9.38;99.99
68276;DHT22;55106;51.438;-0.098;2022-12-20T08:45:52;9.31;99.99
68276;DHT22;55106;51.438;-0.098;2022-12-20T08:48:18;9.24;99.99
68276;DHT22;55106;51.438;-0.098;2022-12-20T08:50:44;9.21;99.99
68276;DHT22;55106;51.438;-0.098;2022-12-20T08:53:09;9.18;99.99
68276;DHT22;55106;51.438;-0.098;2022-12-20T08:55:34;9.15;99.99
68276;DHT22;55106;51.438;-0.098;2022-12-20T08:58:00;9.10;99.99
68276;DHT22;55106;51.438;-0.098;2022-12-20T09:00:25;9.10;99.99
68276;DHT22;55106;51.438;-0.098;2022-12-20T09:02:52;9.10;99.99
68276;DHT22;55106;51.438;-0.098;2022-12-20T09:05:18;9.08;99.99
68276;DHT22;55106;51.438;-0.098;2022-12-20T09:07:44;9.03;99.99
68276;DHT22;55106;51.438;-0.098;2022-12-20T09:10:10;8.97;99.99
68276;DHT22;55106;51.438;-0.098;2022-12-20T09:12:36;8.97;99.99
68276;DHT22;55106;51.438;-0.098;2022-12-20T09:15:02;8.88;99.99
68276;DHT22;55106;51.438;-0.098;2022-12-20T09:17:28;8.91;99.99
68276;DHT22;55106;51.438;-0.098;2022-12-20T09:19:54;8.84;99.99
68276;DHT22;55106;51.438;-0.098;2022-12-20T09:22:19;8.83;99.99
68276;DHT22;55106;51.438;-0.098;2022-12-20T09:24:45;8.80;99.99
68276;DHT22;55106;51.438;-0.098;2022-12-20T09:27:10;8.80;99.99
68276;DHT22;55106;51.438;-0.098;2022-12-20T09:29:35;8.84;99.99
68276;DHT22;55106;51.438;-0.098;2022-12-20T09:32:01;8.94;99.99
68276;DHT22;55106;51.438;-0.098;2022-12-20T09:34:26;9.03;99.99
68276;DHT22;55106;51.438;-0.098;2022-12-20T09:36:52;9.04;99.99
68276;DHT22;55106;51.438;-0.098;2022-12-20T09:39:17;9.04;99.99
68276;DHT22;55106;51.438;-0.098;2022-12-20T09:41:43;9.04;99.99
68276;DHT22;55106;51.438;-0.098;2022-12-20T09:44:31;9.31;99.99
68276;DHT22;55106;51.438;-0.098;2022-12-20T09:47:03;9.36;99.99
68276;DHT22;55106;51.438;-0.098;2022-12-20T09:49:32;9.91;99.35
68276;DHT22;55106;51.438;-0.098;2022-12-20T09:59:44;10.07;97.09
68276;DHT22;55106;51.438;-0.098;2022-12-20T10:02:18;10.01;97.27
68276;DHT22;55106;51.438;-0.098;2022-12-20T10:04:44;10.61;96.02
68276;DHT22;55106;51.438;-0.098;2022-12-20T10:07:21;10.86;93.87
68276;DHT22;55106;51.438;-0.098;2022-12-20T10:12:41;11.77;91.81
68276;DHT22;55106;51.438;-0.098;2022-12-20T10:15:18;11.79;90.65
68276;DHT22;55106;51.438;-0.098;2022-12-20T10:20:29;12.05;88.76
68276;DHT22;55106;51.438;-0.098;2022-12-20T10:23:10;12.18;89.93
68276;DHT22;55106;51.438;-0.098;2022-12-20T10:25:40;12.33;88.87
68276;DHT22;55106;51.438;-0.098;2022-12-20T10:28:12;12.13;90.10
68276;DHT22;55106;51.438;-0.098;2022-12-20T10:30:39;11.98;90.46
68276;DHT22;55106;51.438;-0.098;2022-12-20T10:33:15;12.00;90.57
68276;DHT22;55106;51.438;-0.098;2022-12-20T10:35:41;11.71;91.73
68276;DHT22;55106;51.438;-0.098;2022-12-20T10:38:10;11.48;91.99
68276;DHT22;55106;51.438;-0.098;2022-12-20T10:40:59;11.14;92.67
68276;DHT22;55106;51.438;-0.098;2022-12-20T10:43:25;10.92;93.96
68276;DHT22;55106;51.438;-0.098;2022-12-20T10:46:00;10.72;94.34
68276;DHT22;55106;51.438;-0.098;2022-12-20T10:48:34;10.56;94.80
68276;DHT22;55106;51.438;-0.098;2022-12-20T10:51:01;10.54;95.09
68276;DHT22;55106;51.438;-0.098;2022-12-20T10:53:28;10.38;94.52
68276;DHT22;55106;51.438;-0.098;2022-12-20T10:56:06;10.31;94.83
68276;DHT22;55106;51.438;-0.098;2022-12-20T10:58:36;10.28;95.70
68276;DHT22;55106;51.438;-0.098;2022-12-20T11:04:04;10.24;95.39
68276;DHT22;55106;51.438;-0.098;2022-12-20T11:09:24;10.24;95.48
68276;DHT22;55106;51.438;-0.098;2022-12-20T11:12:04;10.25;94.93
68276;DHT22;55106;51.438;-0.098;2022-12-20T11:14:32;10.34;94.78
68276;DHT22;55106;51.438;-0.098;2022-12-20T11:17:01;10.30;94.65
68276;DHT22;55106;51.438;-0.098;2022-12-20T11:25:55;10.25;94.54
68276;DHT22;55106;51.438;-0.098;2022-12-20T11:34:37;10.17;94.17
68276;DHT22;55106;51.438;-0.098;2022-12-20T11:40:15;10.21;93.45
68276;DHT22;55106;51.438;-0.098;2022-12-20T11:45:20;10.18;93.17
68276;DHT22;55106;51.438;-0.098;2022-12-20T11:53:20;10.17;92.77
68276;DHT22;55106;51.438;-0.098;2022-12-20T11:55:51;10.18;92.26
68276;DHT22;55106;51.438;-0.098;2022-12-20T11:58:51;10.11;92.59
68276;DHT22;55106;51.438;-0.098;2022-12-20T12:01:23;10.10;92.76
68276;DHT22;55106;51.438;-0.098;2022-12-20T12:06:25;10.13;92.54
68276;DHT22;55106;51.438;-0.098;2022-12-20T12:12:14;10.08;92.84
68276;DHT22;55106;51.438;-0.098;2022-12-20T12:17:43;10.03;92.92
68276;DHT22;55106;51.438;-0.098;2022-12-20T12:22:53;10.01;91.96
68276;DHT22;55106;51.438;-0.098;2022-12-20T12:25:22;9.93;92.79
68276;DHT22;55106;51.438;-0.098;2022-12-20T12:27:47;9.91;92.45
68276;DHT22;55106;51.438;-0.098;2022-12-20T12:30:14;9.90;93.27
68276;DHT22;55106;51.438;-0.098;2022-12-20T12:32:57;9.85;92.45
68276;DHT22;55106;51.438;-0.098;2022-12-20T12:38:43;9.80;92.15
68276;DHT22;55106;51.438;-0.098;2022-12-20T12:44:50;9.82;92.13
68276;DHT22;55106;51.438;-0.098;2022-12-20T12:47:47;9.79;91.82
68276;DHT22;55106;51.438;-0.098;2022-12-20T12:50:27;9.80;91.47
68276;DHT22;55106;51.438;-0.098;2022-12-20T12:52:57;9.80;91.47
68276;DHT22;55106;51.438;-0.098;2022-12-20T12:55:47;9.78;92.58
68276;DHT22;55106;51.438;-0.098;2022-12-20T13:11:32;9.72;91.63
68276;DHT22;55106;51.438;-0.098;2022-12-20T13:21:58;9.72;91.18
68276;DHT22;55106;51.438;-0.098;2022-12-20T13:24:52;9.79;91.20
68276;DHT22;55106;51.438;-0.098;2022-12-20T13:27:35;9.89;90.63
68276;DHT22;55106;51.438;-0.098;2022-12-20T13:38:04;9.87;91.11
68276;DHT22;55106;51.438;-0.098;2022-12-20T13:40:56;9.87;90.60
68276;DHT22;55106;51.438;-0.098;2022-12-20T13:45:53;9.83;90.02
68276;DHT22;55106;51.438;-0.098;2022-12-20T13:48:30;9.83;90.47
68276;DHT22;55106;51.438;-0.098;2022-12-20T13:51:00;9.87;90.63
68276;DHT22;55106;51.438;-0.098;2022-12-20T13:53:26;9.86;90.64
68276;DHT22;55106;51.438;-0.098;2022-12-20T13:55:53;9.79;90.65
68276;DHT22;55106;51.438;-0.098;2022-12-20T13:58:23;9.79;90.33
68276;DHT22;55106;51.438;-0.098;2022-12-20T14:00:50;9.73;90.58
68276;DHT22;55106;51.438;-0.098;2022-12-20T14:03:23;9.79;91.09
68276;DHT22;55106;51.438;-0.098;2022-12-20T14:05:55;9.80;90.88
68276;DHT22;55106;51.438;-0.098;2022-12-20T14:08:24;9.76;92.20
68276;DHT22;55106;51.438;-0.098;2022-12-20T14:10:51;9.83;89.24
68276;DHT22;55106;51.438;-0.098;2022-12-20T14:15:44;9.78;89.71
68276;DHT22;55106;51.438;-0.098;2022-12-20T14:18:21;9.76;89.75
68276;DHT22;55106;51.438;-0.098;2022-12-20T14:20:59;9.65;90.39
68276;DHT22;55106;51.438;-0.098;2022-12-20T14:23:35;9.60;90.46
68276;DHT22;55106;51.438;-0.098;2022-12-20T14:26:01;9.53;89.92
68276;DHT22;55106;51.438;-0.098;2022-12-20T14:28:36;9.42;89.25
68276;DHT22;55106;51.438;-0.098;2022-12-20T14:31:03;9.39;89.63
68276;DHT22;55106;51.438;-0.098;2022-12-20T14:33:35;9.34;89.18
68276;DHT22;55106;51.438;-0.098;2022-12-20T14:36:18;9.25;89.79
68276;DHT22;55106;51.438;-0.098;2022-12-20T14:38:49;9.17;90.27
68276;DHT22;55106;51.438;-0.098;2022-12-20T14:41:30;9.12;90.90
68276;DHT22;55106;51.438;-0.098;2022-12-20T14:44:12;9.10;90.63
68276;DHT22;55106;51.438;-0.098;2022-12-20T14:46:39;9.00;90.78
68276;DHT22;55106;51.438;-0.098;2022-12-20T14:51:48;8.94;91.22
68276;DHT22;55106;51.438;-0.098;2022-12-20T14:54:26;8.84;91.43
68276;DHT22;55106;51.438;-0.098;2022-12-20T14:56:56;8.69;92.16
68276;DHT22;55106;51.438;-0.098;2022-12-20T14:59:26;8.62;92.75
68276;DHT22;55106;51.438;-0.098;2022-12-20T15:01:53;8.66;91.98
68276;DHT22;55106;51.438;-0.098;2022-12-20T15:07:00;8.55;92.17
68276;DHT22;55106;51.438;-0.098;2022-12-20T15:09:26;8.38;92.99
68276;DHT22;55106;51.438;-0.098;2022-12-20T15:11:55;8.35;92.72
68276;DHT22;55106;51.438;-0.098;2022-12-20T15:14:31;8.35;92.86
68276;DHT22;55106;51.438;-0.098;2022-12-20T15:16:59;8.24;93.62
68276;DHT22;55106;51.438;-0.098;2022-12-20T15:19:25;8.09;93.98
68276;DHT22;55106;51.438;-0.098;2022-12-20T15:21:50;7.98;94.92
68276;DHT22;55106;51.438;-0.098;2022-12-20T15:24:24;7.84;94.94
68276;DHT22;55106;51.438;-0.098;2022-12-20T15:26:50;7.77;95.11
68276;DHT22;55106;51.438;-0.098;2022-12-20T15:29:24;7.70;95.56
68276;DHT22;55106;51.438;-0.098;2022-12-20T15:31:52;7.70;95.75
68276;DHT22;55106;51.438;-0.098;2022-12-20T15:34:32;7.62;95.63
68276;DHT22;55106;51.438;-0.098;2022-12-20T15:36:58;7.47;96.43
68276;DHT22;55106;51.438;-0.098;2022-12-20T15:39:25;7.39;96.49
68276;DHT22;55106;51.438;-0.098;2022-12-20T15:41:51;7.28;97.54
68276;DHT22;55106;51.438;-0.098;2022-12-20T15:44:20;7.23;97.51
68276;DHT22;55106;51.438;-0.098;2022-12-20T15:46:46;7.11;97.60
68276;DHT22;55106;51.438;-0.098;2022-12-20T15:49:14;7.14;97.65
68276;DHT22;55106;51.438;-0.098;2022-12-20T15:51:40;7.18;97.32
68276;DHT22;55106;51.438;-0.098;2022-12-20T15:54:19;7.04;98.03
68276;DHT22;55106;51.438;-0.098;2022-12-20T15:56:46;6.88;98.50
68276;DHT22;55106;51.438;-0.098;2022-12-20T15:59:11;6.78;98.72
68276;DHT22;55106;51.438;-0.098;2022-12-20T16:01:38;6.69;99.39
68276;DHT22;55106;51.438;-0.098;2022-12-20T16:04:04;6.58;99.76
68276;DHT22;55106;51.438;-0.098;2022-12-20T16:06:30;6.53;99.99
68276;DHT22;55106;51.438;-0.098;2022-12-20T16:08:57;6.50;99.99
68276;DHT22;55106;51.438;-0.098;2022-12-20T16:13:50;6.44;99.99
68276;DHT22;55106;51.438;-0.098;2022-12-20T16:16:19;6.40;99.99
68276;DHT22;55106;51.438;-0.098;2022-12-20T16:18:44;6.42;99.99
68276;DHT22;55106;51.438;-0.098;2022-12-20T16:21:21;6.40;99.99
68276;DHT22;55106;51.438;-0.098;2022-12-20T16:23:47;6.37;99.99
68276;DHT22;55106;51.438;-0.098;2022-12-20T16:26:15;6.32;99.99
68276;DHT22;55106;51.438;-0.098;2022-12-20T16:28:41;6.33;99.99
68276;DHT22;55106;51.438;-0.098;2022-12-20T16:31:23;6.29;99.99
68276;DHT22;55106;51.438;-0.098;2022-12-20T16:33:50;6.26;99.99
68276;DHT22;55106;51.438;-0.098;2022-12-20T16:36:15;6.28;99.99
68276;DHT22;55106;51.438;-0.098;2022-12-20T16:38:41;6.22;99.99
68276;DHT22;55106;51.438;-0.098;2022-12-20T16:41:21;6.16;99.99
68276;DHT22;55106;51.438;-0.098;2022-12-20T16:43:48;6.06;99.99
68276;DHT22;55106;51.438;-0.098;2022-12-20T16:46:18;6.01;99.99
68276;DHT22;55106;51.438;-0.098;2022-12-20T16:48:44;5.98;99.99
68276;DHT22;55106;51.438;-0.098;2022-12-20T16:51:30;6.09;99.99
68276;DHT22;55106;51.438;-0.098;2022-12-20T16:54:04;6.03;99.99
68276;DHT22;55106;51.438;-0.098;2022-12-20T16:56:30;6.13;99.99
68276;DHT22;55106;51.438;-0.098;2022-12-20T16:58:56;6.08;99.99
68276;DHT22;55106;51.438;-0.098;2022-12-20T17:01:27;5.99;99.99
68276;DHT22;55106;51.438;-0.098;2022-12-20T17:03:53;5.90;99.99
68276;DHT22;55106;51.438;-0.098;2022-12-20T17:06:18;5.85;99.99
68276;DHT22;55106;51.438;-0.098;2022-12-20T17:08:45;5.78;99.99
68276;DHT22;55106;51.438;-0.098;2022-12-20T17:11:16;5.71;99.99
68276;DHT22;55106;51.438;-0.098;2022-12-20T17:13:43;5.64;99.99
68276;DHT22;55106;51.438;-0.098;2022-12-20T17:16:13;5.58;99.99
68276;DHT22;55106;51.438;-0.098;2022-12-20T17:18:40;5.57;99.99
68276;DHT22;55106;51.438;-0.098;2022-12-20T17:23:43;5.55;99.99
68276;DHT22;55106;51.438;-0.098;2022-12-20T17:26:13;5.47;99.99